createdAt,value
2017-11-29T00:00:07.486Z,4.30
2017-11-29T00:02:33.736Z,4.50
2017-11-29T00:05:00.026Z,4.23
2017-11-29T00:07:26.272Z,4.40
2017-11-29T00:09:52.563Z,4.10
2017-11-29T00:12:19.562Z,4.40
2017-11-29T00:14:45.801Z,4.40
2017-11-29T00:17:12.067Z,4.30
2017-11-29T00:19:39.065Z,4.13
2017-11-29T00:22:05.369Z,4.00
2017-11-29T00:24:31.641Z,4.57
2017-11-29T00:26:58.019Z,4.57
2017-11-29T00:29:24.314Z,3.73
2017-11-29T00:31:50.592Z,5.70
2017-11-29T00:34:16.965Z,4.40
2017-11-29T00:36:44.046Z,4.67
2017-11-29T00:39:10.323Z,4.80
2017-11-29T00:41:36.572Z,4.30
2017-11-29T00:44:02.866Z,4.33
2017-11-29T00:46:29.083Z,5.30
2017-11-29T00:48:55.382Z,4.30
2017-11-29T00:51:22.343Z,5.30
2017-11-29T00:53:49.332Z,4.67
2017-11-29T00:56:15.640Z,4.93
2017-11-29T00:58:41.902Z,4.90
2017-11-29T01:01:08.200Z,4.50
2017-11-29T01:03:34.444Z,4.77
2017-11-29T01:06:00.771Z,4.73
2017-11-29T01:08:26.988Z,4.70
2017-11-29T01:10:53.354Z,5.73
2017-11-29T01:13:19.655Z,4.83
2017-11-29T01:15:45.915Z,5.00
2017-11-29T01:18:12.148Z,5.07
2017-11-29T01:20:38.412Z,5.30
2017-11-29T01:23:04.640Z,5.67
2017-11-29T01:25:30.902Z,5.47
2017-11-29T01:27:57.167Z,4.93
2017-11-29T01:30:24.115Z,4.97
2017-11-29T01:32:51.115Z,4.80
2017-11-29T01:35:17.365Z,5.03
2017-11-29T01:37:43.604Z,5.63
2017-11-29T01:40:09.860Z,5.77
2017-11-29T01:42:36.821Z,5.23
2017-11-29T01:45:03.076Z,6.00
2017-11-29T01:47:29.306Z,4.80
2017-11-29T01:49:55.555Z,5.03
2017-11-29T01:52:21.788Z,4.87
2017-11-29T01:54:48.107Z,5.60
2017-11-29T01:57:14.344Z,5.20
2017-11-29T01:59:40.611Z,5.30
2017-11-29T02:02:06.988Z,5.80
2017-11-29T02:04:33.287Z,5.10
2017-11-29T02:06:59.574Z,4.80
2017-11-29T02:09:25.825Z,5.50
2017-11-29T02:11:52.101Z,5.60
2017-11-29T02:14:18.340Z,5.40
2017-11-29T02:16:44.570Z,5.00
2017-11-29T02:19:10.833Z,5.90
2017-11-29T02:21:37.840Z,5.37
2017-11-29T02:24:04.108Z,5.97
2017-11-29T02:26:31.070Z,5.80
2017-11-29T02:28:57.359Z,5.57
2017-11-29T02:31:23.610Z,6.00
2017-11-29T02:33:50.623Z,5.43
2017-11-29T02:36:17.720Z,5.97
2017-11-29T02:38:43.958Z,6.10
2017-11-29T02:41:22.492Z,6.07
2017-11-29T02:43:48.760Z,6.23
2017-11-29T02:46:15.075Z,5.47
2017-11-29T02:48:41.312Z,6.13
2017-11-29T02:51:07.613Z,5.67
2017-11-29T02:53:33.873Z,5.33
2017-11-29T02:56:00.850Z,5.97
2017-11-29T02:58:27.161Z,5.47
2017-11-29T03:00:54.240Z,5.80
2017-11-29T03:03:20.497Z,5.43
2017-11-29T03:05:46.737Z,5.53
2017-11-29T03:08:12.992Z,6.17
2017-11-29T03:10:40.021Z,5.77
2017-11-29T03:13:06.415Z,5.70
2017-11-29T03:15:32.637Z,5.60
2017-11-29T03:17:58.859Z,6.00
2017-11-29T03:20:25.106Z,5.77
2017-11-29T03:22:51.355Z,5.70
2017-11-29T03:25:17.675Z,5.47
2017-11-29T03:27:43.920Z,5.50
2017-11-29T03:30:10.186Z,6.07
2017-11-29T03:32:36.427Z,6.10
2017-11-29T03:35:02.810Z,5.50
2017-11-29T03:37:29.150Z,5.60
2017-11-29T03:39:56.140Z,5.13
2017-11-29T03:42:22.363Z,5.40
2017-11-29T03:44:48.597Z,5.27
2017-11-29T03:47:14.840Z,5.30
2017-11-29T03:49:41.068Z,5.70
2017-11-29T03:52:07.313Z,5.20
2017-11-29T03:54:33.652Z,5.30
2017-11-29T03:57:00.677Z,5.90
2017-11-29T03:59:26.905Z,5.40
2017-11-29T04:01:53.164Z,6.90
2017-11-29T04:04:19.392Z,5.00
2017-11-29T04:06:46.388Z,5.67
2017-11-29T04:09:12.671Z,6.60
2017-11-29T04:11:39.669Z,5.43
2017-11-29T04:14:05.990Z,5.90
2017-11-29T04:16:32.247Z,5.33
2017-11-29T04:18:58.473Z,5.83
2017-11-29T04:21:24.804Z,5.50
2017-11-29T04:23:51.107Z,6.20
2017-11-29T04:26:17.375Z,6.50
2017-11-29T04:28:43.707Z,5.93
2017-11-29T04:31:10.767Z,6.30
2017-11-29T04:33:37.032Z,6.17
2017-11-29T04:36:03.263Z,7.30
2017-11-29T04:38:29.511Z,7.33
2017-11-29T04:40:55.824Z,7.13
2017-11-29T04:43:22.089Z,7.10
2017-11-29T04:45:48.333Z,6.83
2017-11-29T04:48:15.355Z,7.20
2017-11-29T04:50:41.597Z,8.33
2017-11-29T04:53:07.832Z,7.77
2017-11-29T04:55:34.895Z,7.60
2017-11-29T04:58:01.228Z,7.50
2017-11-29T05:00:28.308Z,7.23
2017-11-29T05:02:54.592Z,7.70
2017-11-29T05:05:20.882Z,8.27
2017-11-29T05:07:47.149Z,7.73
2017-11-29T05:10:14.163Z,8.73
2017-11-29T05:12:40.567Z,8.50
2017-11-29T05:15:07.793Z,8.50
2017-11-29T05:17:34.272Z,8.00
2017-11-29T05:20:00.704Z,9.10
2017-11-29T05:22:27.556Z,9.13
2017-11-29T05:24:53.792Z,8.60
2017-11-29T05:27:20.098Z,9.13
2017-11-29T05:29:46.389Z,9.63
2017-11-29T05:32:13.398Z,9.93
2017-11-29T05:34:39.636Z,8.77
2017-11-29T05:37:06.644Z,11.50
2017-11-29T05:39:32.910Z,10.33
2017-11-29T05:41:59.267Z,10.17
2017-11-29T05:44:26.242Z,9.27
2017-11-29T05:46:52.472Z,8.90
2017-11-29T05:49:18.784Z,10.57
2017-11-29T05:51:45.032Z,10.37
2017-11-29T05:54:11.300Z,10.27
2017-11-29T05:56:37.557Z,11.70
2017-11-29T05:59:03.821Z,10.63
2017-11-29T06:01:30.288Z,9.87
2017-11-29T06:03:56.600Z,10.57
2017-11-29T06:06:22.870Z,10.27
2017-11-29T06:08:49.870Z,11.27
2017-11-29T06:11:16.165Z,11.87
2017-11-29T06:13:42.556Z,10.60
2017-11-29T06:16:09.118Z,10.50
2017-11-29T06:18:35.463Z,11.27
2017-11-29T06:21:01.828Z,11.17
2017-11-29T06:23:28.339Z,11.10
2017-11-29T06:25:54.799Z,10.03
2017-11-29T06:28:21.888Z,11.90
2017-11-29T06:30:48.993Z,10.70
2017-11-29T06:33:16.776Z,11.70
2017-11-29T06:35:43.113Z,12.17
2017-11-29T06:38:09.489Z,11.97
2017-11-29T06:40:35.817Z,11.50
2017-11-29T06:43:02.164Z,11.40
2017-11-29T06:45:28.545Z,11.70
2017-11-29T06:47:54.884Z,12.03
2017-11-29T06:50:21.921Z,11.87
2017-11-29T06:52:48.968Z,11.50
2017-11-29T06:55:15.239Z,10.73
2017-11-29T06:57:41.551Z,11.97
2017-11-29T07:00:07.843Z,11.27
2017-11-29T07:02:34.944Z,11.50
2017-11-29T07:05:01.354Z,11.40
2017-11-29T07:07:27.869Z,11.90
2017-11-29T07:09:54.866Z,12.23
2017-11-29T07:12:21.150Z,11.03
2017-11-29T07:14:48.124Z,14.17
2017-11-29T07:17:22.274Z,13.20
2017-11-29T07:19:48.588Z,12.43
2017-11-29T07:22:14.873Z,12.20
2017-11-29T07:24:41.895Z,12.97
2017-11-29T07:27:08.166Z,12.50
2017-11-29T07:29:34.384Z,13.00
2017-11-29T07:32:00.627Z,13.27
2017-11-29T07:34:26.952Z,12.20
2017-11-29T07:36:53.222Z,13.00
2017-11-29T07:39:19.485Z,13.17
2017-11-29T07:41:46.683Z,12.93
2017-11-29T07:44:12.940Z,13.93
2017-11-29T07:46:39.196Z,13.63
2017-11-29T07:49:06.217Z,11.90
2017-11-29T07:51:32.507Z,12.60
2017-11-29T07:53:58.795Z,12.93
2017-11-29T07:56:25.775Z,13.47
2017-11-29T07:58:52.073Z,13.40
2017-11-29T08:01:19.059Z,12.00
2017-11-29T08:03:45.351Z,13.77
2017-11-29T08:06:12.372Z,14.23
2017-11-29T08:08:38.604Z,13.20
2017-11-29T08:11:04.968Z,13.87
2017-11-29T08:13:31.221Z,14.33
2017-11-29T08:15:57.600Z,14.33
2017-11-29T08:18:23.909Z,14.37
2017-11-29T08:20:50.192Z,13.93
2017-11-29T08:23:16.452Z,13.00
2017-11-29T08:25:42.721Z,13.20
2017-11-29T08:28:09.786Z,13.33
2017-11-29T08:30:36.101Z,14.70
2017-11-29T08:33:02.531Z,14.00
2017-11-29T08:35:28.841Z,13.10
2017-11-29T08:37:55.105Z,12.83
2017-11-29T08:40:22.153Z,13.30
2017-11-29T08:42:48.419Z,14.80
2017-11-29T08:45:14.734Z,14.40
2017-11-29T08:47:40.987Z,13.87
2017-11-29T08:50:07.327Z,14.50
2017-11-29T08:52:33.738Z,15.40
2017-11-29T08:55:00.156Z,17.70
2017-11-29T08:57:26.719Z,15.53
2017-11-29T08:59:53.025Z,13.80
2017-11-29T09:02:19.337Z,13.27
2017-11-29T09:04:45.632Z,13.30
2017-11-29T09:07:11.927Z,13.87
2017-11-29T09:09:38.353Z,13.67
2017-11-29T09:12:04.722Z,12.37
2017-11-29T09:14:31.750Z,13.27
2017-11-29T09:16:58.024Z,14.17
2017-11-29T09:19:25.088Z,13.77
2017-11-29T09:21:51.578Z,13.80
2017-11-29T09:24:17.956Z,13.80
2017-11-29T09:26:44.249Z,13.03
2017-11-29T09:29:11.272Z,13.80
2017-11-29T09:31:37.583Z,12.80
2017-11-29T09:34:04.622Z,13.03
2017-11-29T09:36:30.912Z,13.00
2017-11-29T09:39:00.952Z,13.03
2017-11-29T09:41:27.311Z,13.60
2017-11-29T09:43:53.692Z,13.10
2017-11-29T09:46:20.008Z,13.97
2017-11-29T09:48:46.253Z,13.60
2017-11-29T09:51:13.256Z,12.03
2017-11-29T09:53:39.609Z,12.70
2017-11-29T09:56:05.885Z,12.97
2017-11-29T09:58:32.107Z,12.40
2017-11-29T10:00:58.417Z,12.30
2017-11-29T10:03:24.684Z,12.50
2017-11-29T10:05:50.900Z,11.90
2017-11-29T10:08:17.172Z,11.60
2017-11-29T10:10:43.411Z,13.43
2017-11-29T10:13:09.794Z,12.03
2017-11-29T10:15:36.084Z,12.33
2017-11-29T10:18:03.145Z,12.50
2017-11-29T10:20:29.391Z,11.80
2017-11-29T10:22:55.659Z,11.17
2017-11-29T10:25:22.053Z,11.60
2017-11-29T10:27:48.311Z,11.57
2017-11-29T10:30:15.432Z,11.00
2017-11-29T10:32:41.686Z,11.70
2017-11-29T10:35:08.056Z,10.80
2017-11-29T10:37:34.415Z,10.10
2017-11-29T10:40:00.768Z,10.53
2017-11-29T10:42:27.084Z,10.63
2017-11-29T10:44:53.377Z,10.97
2017-11-29T10:47:20.428Z,9.50
2017-11-29T10:49:46.807Z,11.63
2017-11-29T10:52:13.203Z,9.73
2017-11-29T10:54:39.529Z,10.50
2017-11-29T10:57:05.857Z,9.47
2017-11-29T10:59:32.917Z,9.07
2017-11-29T11:01:59.208Z,10.27
2017-11-29T11:04:25.516Z,9.93
2017-11-29T11:06:51.863Z,10.30
2017-11-29T11:09:19.014Z,9.87
2017-11-29T11:11:45.364Z,9.60
2017-11-29T11:14:11.793Z,9.20
2017-11-29T11:16:39.019Z,8.83
2017-11-29T11:19:05.335Z,8.63
2017-11-29T11:21:31.732Z,9.77
2017-11-29T11:23:58.038Z,9.10
2017-11-29T11:26:25.307Z,10.03
2017-11-29T11:28:51.626Z,9.77
2017-11-29T11:31:18.108Z,10.83
2017-11-29T11:33:44.503Z,10.00
2017-11-29T11:36:10.856Z,11.23
2017-11-29T11:38:37.292Z,10.30
2017-11-29T11:41:03.654Z,10.20
2017-11-29T11:43:30.824Z,10.17
2017-11-29T11:45:57.273Z,8.70
2017-11-29T11:48:23.600Z,9.83
2017-11-29T11:50:49.844Z,9.60
2017-11-29T11:53:16.199Z,10.13
2017-11-29T11:55:42.539Z,10.80
2017-11-29T11:58:08.822Z,11.60
2017-11-29T12:00:35.140Z,9.60
2017-11-29T12:03:02.200Z,9.40
2017-11-29T12:05:29.190Z,9.53
2017-11-29T12:07:55.481Z,10.30
2017-11-29T12:10:21.801Z,10.90
2017-11-29T12:12:48.791Z,11.20
2017-11-29T12:15:15.125Z,10.00
2017-11-29T12:17:41.571Z,9.03
2017-11-29T12:20:08.594Z,9.27
2017-11-29T12:22:34.887Z,8.63
2017-11-29T12:25:01.184Z,10.00
2017-11-29T12:27:27.717Z,9.73
2017-11-29T12:29:54.723Z,9.17
2017-11-29T12:32:21.184Z,8.40
2017-11-29T12:34:47.472Z,8.57
2017-11-29T12:37:13.914Z,7.53
2017-11-29T12:39:40.160Z,8.83
2017-11-29T12:42:06.408Z,7.90
2017-11-29T12:44:32.684Z,7.73
2017-11-29T12:46:58.953Z,8.07
2017-11-29T12:49:37.699Z,7.83
2017-11-29T12:52:04.828Z,7.87
2017-11-29T12:54:31.171Z,7.00
2017-11-29T12:56:57.411Z,7.70
2017-11-29T12:59:24.426Z,7.77
2017-11-29T13:01:50.861Z,7.47
2017-11-29T13:04:17.401Z,7.83
2017-11-29T13:06:44.597Z,8.40
2017-11-29T13:09:11.005Z,8.30
2017-11-29T13:11:37.444Z,7.00
2017-11-29T13:14:04.528Z,7.10
2017-11-29T13:16:30.917Z,6.27
2017-11-29T13:18:57.425Z,7.30
2017-11-29T13:21:23.809Z,6.90
2017-11-29T13:23:50.109Z,7.70
2017-11-29T13:26:17.172Z,7.27
2017-11-29T13:28:44.233Z,6.10
2017-11-29T13:31:10.539Z,6.43
2017-11-29T13:33:37.632Z,6.50
2017-11-29T13:36:03.989Z,7.20
2017-11-29T13:38:30.648Z,7.13
2017-11-29T13:40:57.002Z,7.73
2017-11-29T13:43:24.013Z,7.20
2017-11-29T13:45:50.367Z,7.23
2017-11-29T13:48:16.675Z,7.73
2017-11-29T13:50:42.913Z,9.70
2017-11-29T13:53:09.255Z,12.80
2017-11-29T13:55:35.657Z,15.17
2017-11-29T13:58:02.075Z,14.80
2017-11-29T14:00:28.375Z,13.20
2017-11-29T14:02:55.104Z,14.30
2017-11-29T14:05:21.405Z,13.17
2017-11-29T14:07:48.578Z,13.00
2017-11-29T14:10:15.659Z,13.73
2017-11-29T14:12:41.987Z,14.20
2017-11-29T14:15:08.295Z,14.30
2017-11-29T14:17:34.694Z,12.83
2017-11-29T14:20:01.102Z,13.57
2017-11-29T14:22:27.352Z,12.83
2017-11-29T14:24:53.633Z,13.07
2017-11-29T14:27:20.080Z,14.20
2017-11-29T14:29:46.357Z,15.00
2017-11-29T14:32:13.357Z,14.60
2017-11-29T14:34:39.653Z,15.00
2017-11-29T14:37:05.953Z,14.00
2017-11-29T14:39:32.966Z,13.30
2017-11-29T14:41:59.263Z,13.43
2017-11-29T14:44:25.633Z,13.33
2017-11-29T14:46:52.704Z,15.47
2017-11-29T14:49:19.792Z,14.80
2017-11-29T14:51:46.129Z,13.77
2017-11-29T14:54:12.404Z,15.57
2017-11-29T14:56:39.597Z,15.00
2017-11-29T14:59:05.901Z,14.13
2017-11-29T15:01:33.013Z,14.53
2017-11-29T15:04:00.304Z,14.93
2017-11-29T15:06:26.962Z,15.77
2017-11-29T15:08:53.198Z,16.00
2017-11-29T15:11:19.474Z,15.13
2017-11-29T15:13:45.701Z,14.60
2017-11-29T15:16:12.010Z,14.93
2017-11-29T15:18:38.232Z,15.80
2017-11-29T15:21:04.471Z,14.57
2017-11-29T15:23:35.011Z,14.37
2017-11-29T15:26:02.158Z,15.60
2017-11-29T15:28:28.617Z,15.30
2017-11-29T15:30:54.973Z,15.97
2017-11-29T15:33:21.527Z,14.97
2017-11-29T15:35:48.173Z,16.40
2017-11-29T15:38:14.528Z,14.07
2017-11-29T15:40:40.896Z,14.03
2017-11-29T15:43:07.916Z,16.23
2017-11-29T15:45:34.276Z,15.37
2017-11-29T15:48:00.651Z,17.00
2017-11-29T15:50:26.965Z,14.27
2017-11-29T15:52:53.937Z,16.47
2017-11-29T15:55:21.144Z,15.70
2017-11-29T15:57:47.626Z,15.63
2017-11-29T16:00:14.079Z,15.67
2017-11-29T16:02:40.478Z,15.20
2017-11-29T16:05:06.768Z,16.57
2017-11-29T16:07:33.063Z,16.13
2017-11-29T16:09:59.350Z,16.23
2017-11-29T16:12:25.683Z,16.53
2017-11-29T16:14:51.932Z,15.17
2017-11-29T16:17:18.279Z,14.00
2017-11-29T16:19:45.376Z,16.93
2017-11-29T16:22:11.655Z,16.83
2017-11-29T16:24:38.884Z,14.60
2017-11-29T16:27:05.168Z,15.83
2017-11-29T16:29:31.651Z,16.93
2017-11-29T16:31:58.054Z,16.50
2017-11-29T16:34:26.042Z,16.17
2017-11-29T16:36:52.352Z,17.70
2017-11-29T16:39:18.961Z,16.80
2017-11-29T16:41:45.328Z,16.10
2017-11-29T16:44:13.144Z,16.60
2017-11-29T16:46:39.471Z,16.50
2017-11-29T16:49:07.624Z,16.17
2017-11-29T16:51:34.092Z,16.47
2017-11-29T16:54:01.590Z,17.23
2017-11-29T16:56:28.926Z,15.33
2017-11-29T16:58:55.379Z,13.90
2017-11-29T17:01:22.072Z,16.23
2017-11-29T17:03:48.784Z,16.13
2017-11-29T17:06:15.279Z,16.07
2017-11-29T17:08:42.061Z,15.77
2017-11-29T17:11:08.900Z,15.80
2017-11-29T17:13:36.030Z,14.73
2017-11-29T17:16:02.411Z,16.40
2017-11-29T17:18:28.773Z,15.73
2017-11-29T17:20:55.132Z,17.10
2017-11-29T17:23:22.167Z,17.87
2017-11-29T17:25:48.500Z,16.77
2017-11-29T17:28:14.833Z,16.23
2017-11-29T17:30:41.125Z,15.60
2017-11-29T17:33:07.477Z,16.17
2017-11-29T17:35:33.729Z,16.70
2017-11-29T17:38:00.015Z,16.70
2017-11-29T17:40:26.260Z,15.57
2017-11-29T17:42:52.657Z,16.40
2017-11-29T17:45:20.632Z,14.80
2017-11-29T17:47:47.145Z,16.10
2017-11-29T17:50:13.484Z,16.23
2017-11-29T17:52:40.611Z,16.57
2017-11-29T17:55:07.023Z,17.60
2017-11-29T17:57:33.358Z,16.17
2017-11-29T17:59:59.709Z,17.07
2017-11-29T18:02:26.856Z,17.73
2017-11-29T18:04:53.259Z,16.40
2017-11-29T18:07:19.572Z,16.70
2017-11-29T18:09:45.986Z,16.60
2017-11-29T18:12:12.652Z,16.63
2017-11-29T18:14:38.970Z,16.60
2017-11-29T18:17:05.456Z,17.37
2017-11-29T18:19:31.917Z,16.70
2017-11-29T18:21:58.309Z,17.03
2017-11-29T18:24:24.571Z,16.00
2017-11-29T18:26:51.574Z,15.27
2017-11-29T18:29:18.770Z,17.63
2017-11-29T18:31:45.312Z,18.07
2017-11-29T18:34:11.732Z,17.27
2017-11-29T18:36:38.727Z,18.30
2017-11-29T18:39:05.352Z,19.70
2017-11-29T18:41:32.053Z,18.57
2017-11-29T18:43:58.518Z,19.37
2017-11-29T18:46:24.830Z,18.10
2017-11-29T18:48:51.145Z,18.37
2017-11-29T18:51:18.510Z,17.70
2017-11-29T18:53:44.836Z,17.60
2017-11-29T18:56:11.172Z,17.13
2017-11-29T18:58:37.504Z,18.23
2017-11-29T19:01:03.807Z,18.00
2017-11-29T19:03:30.068Z,20.13
2017-11-29T19:05:56.374Z,17.60
2017-11-29T19:08:24.083Z,18.93
2017-11-29T19:10:50.354Z,20.50
2017-11-29T19:13:16.693Z,19.30
2017-11-29T19:15:42.989Z,19.93
2017-11-29T19:18:09.349Z,19.10
2017-11-29T19:20:36.393Z,17.10
2017-11-29T19:23:02.656Z,18.87
2017-11-29T19:25:28.920Z,18.87
2017-11-29T19:27:55.227Z,19.83
2017-11-29T19:30:21.599Z,20.87
2017-11-29T19:32:48.060Z,19.17
2017-11-29T19:35:15.120Z,18.23
2017-11-29T19:37:41.420Z,18.80
2017-11-29T19:40:08.476Z,18.90
2017-11-29T19:42:34.832Z,18.93
2017-11-29T19:45:01.141Z,17.70
2017-11-29T19:47:28.123Z,18.40
2017-11-29T19:49:54.409Z,17.83
2017-11-29T19:52:21.416Z,19.50
2017-11-29T19:54:55.049Z,18.00
2017-11-29T19:57:22.095Z,18.43
2017-11-29T19:59:48.414Z,18.20
2017-11-29T20:02:14.715Z,19.50
2017-11-29T20:04:40.984Z,19.07
2017-11-29T20:07:07.235Z,18.43
2017-11-29T20:09:35.516Z,19.40
2017-11-29T20:12:01.782Z,20.87
2017-11-29T20:14:28.029Z,20.43
2017-11-29T20:16:54.370Z,18.97
2017-11-29T20:19:20.854Z,19.00
2017-11-29T20:21:47.146Z,18.10
2017-11-29T20:24:14.191Z,19.37
2017-11-29T20:26:40.411Z,19.40
2017-11-29T20:29:06.633Z,21.13
2017-11-29T20:31:33.703Z,20.03
2017-11-29T20:34:00.698Z,19.80
2017-11-29T20:36:26.972Z,18.53
2017-11-29T20:38:54.111Z,20.73
2017-11-29T20:41:20.427Z,20.33
2017-11-29T20:43:46.852Z,21.97
2017-11-29T20:46:13.849Z,20.57
2017-11-29T20:48:40.075Z,22.40
2017-11-29T20:51:06.524Z,21.57
2017-11-29T20:53:33.607Z,21.77
2017-11-29T20:56:00.303Z,20.87
2017-11-29T20:58:26.668Z,21.83
2017-11-29T21:00:53.888Z,21.87
2017-11-29T21:03:20.364Z,21.13
2017-11-29T21:05:47.436Z,20.90
2017-11-29T21:08:14.825Z,19.80
2017-11-29T21:10:41.054Z,20.17
2017-11-29T21:13:07.550Z,22.90
2017-11-29T21:15:34.639Z,19.60
2017-11-29T21:18:01.120Z,19.13
2017-11-29T21:20:27.358Z,22.40
2017-11-29T21:22:54.563Z,21.40
2017-11-29T21:25:20.836Z,20.90
2017-11-29T21:27:47.298Z,20.77
2017-11-29T21:30:14.304Z,20.40
2017-11-29T21:32:40.606Z,19.50
2017-11-29T21:35:07.685Z,21.60
2017-11-29T21:37:34.712Z,21.40
2017-11-29T21:40:01.210Z,21.10
2017-11-29T21:42:27.500Z,22.07
2017-11-29T21:44:54.516Z,21.10
2017-11-29T21:47:20.824Z,23.03
2017-11-29T21:49:47.075Z,21.50
2017-11-29T21:52:13.345Z,21.07
2017-11-29T21:54:39.688Z,22.07
2017-11-29T21:57:05.996Z,22.87
2017-11-29T21:59:33.056Z,21.60
2017-11-29T22:01:59.426Z,22.27
2017-11-29T22:04:25.765Z,21.23
2017-11-29T22:06:52.046Z,22.80
2017-11-29T22:09:19.120Z,23.07
2017-11-29T22:11:45.433Z,24.80
2017-11-29T22:14:12.018Z,22.60
2017-11-29T22:16:39.112Z,24.00
2017-11-29T22:19:05.491Z,23.47
2017-11-29T22:21:32.535Z,23.87
2017-11-29T22:23:58.852Z,25.00
2017-11-29T22:26:25.148Z,24.73
2017-11-29T22:28:51.447Z,23.13
2017-11-29T22:31:17.724Z,24.00
2017-11-29T22:33:44.093Z,24.47
2017-11-29T22:36:10.338Z,23.00
2017-11-29T22:38:37.408Z,24.50
2017-11-29T22:41:03.711Z,24.60
2017-11-29T22:43:30.038Z,24.37
2017-11-29T22:45:56.357Z,23.20
2017-11-29T22:48:22.687Z,21.90
2017-11-29T22:50:49.046Z,22.90
2017-11-29T22:53:16.219Z,22.40
2017-11-29T22:55:42.577Z,24.57
2017-11-29T22:58:08.990Z,23.40
2017-11-29T23:00:35.291Z,23.40
2017-11-29T23:03:01.836Z,21.03
2017-11-29T23:05:28.819Z,22.53
2017-11-29T23:07:56.000Z,20.50
2017-11-29T23:10:23.020Z,22.77
2017-11-29T23:12:49.268Z,22.37
2017-11-29T23:15:15.506Z,22.63
2017-11-29T23:17:41.748Z,22.50
2017-11-29T23:20:08.754Z,23.40
2017-11-29T23:22:35.028Z,23.80
2017-11-29T23:25:02.036Z,23.43
2017-11-29T23:27:28.295Z,22.03
2017-11-29T23:29:55.363Z,24.10
2017-11-29T23:32:22.370Z,21.03
2017-11-29T23:34:48.680Z,23.37
2017-11-29T23:37:14.972Z,22.53
2017-11-29T23:39:41.238Z,21.37
2017-11-29T23:42:07.532Z,23.47
2017-11-29T23:44:33.789Z,22.03
2017-11-29T23:47:00.043Z,21.93
2017-11-29T23:49:26.328Z,22.67
2017-11-29T23:51:52.611Z,21.77
2017-11-29T23:54:18.872Z,21.60
2017-11-29T23:56:45.153Z,22.37
2017-11-29T23:59:11.581Z,22.17
